Time;durP1;ratioP1;P1;durP2;ratioP2;P2;SDS_P1;SDS_P2;PMS_P1;PMS_P2;Temp;Humidity;BMP_temperature;BMP_pressure;BME280_temperature;BME280_humidity;BME280_pressure;Samples;Min_cycle;Max_cycle;Signal;HPM_P1;HPM_P2
2022/05/10 00:01:33;;;;;;;27.95;8.07;;;;;;;16.13;22.69;97970.09;4956663;28;20034;-78
2022/05/10 00:04:01;;;;;;;22.92;7.95;;;;;;;16.01;22.47;97963.53;4925132;28;20050;-77
2022/05/10 00:06:32;;;;;;;24.20;8.33;;;;;;;15.98;22.62;97954.00;4925061;28;20053;-77
2022/05/10 00:08:58;;;;;;;33.92;8.50;;;;;;;15.87;23.01;97956.31;4973492;28;20046;-78
2022/05/10 00:11:24;;;;;;;23.88;8.50;;;;;;;15.87;22.78;97951.81;4940790;28;20043;-77
2022/05/10 00:13:50;;;;;;;21.52;8.85;;;;;;;15.84;22.96;97951.34;4924529;28;20050;-77
2022/05/10 00:16:18;;;;;;;31.08;8.77;;;;;;;15.85;22.98;97931.44;4940770;28;20098;-77
2022/05/10 00:18:45;;;;;;;31.50;8.82;;;;;;;15.89;22.98;97938.97;4972775;28;20051;-77
2022/05/10 00:21:15;;;;;;;25.52;9.32;;;;;;;15.93;23.15;97923.25;4956234;28;20485;-76
2022/05/10 00:23:40;;;;;;;;;;;;;;;15.90;23.23;97923.63;4956779;28;20222;-77
2022/05/10 00:26:06;;;;;;;21.10;9.10;;;;;;;15.85;23.09;97924.19;4940338;28;19985;-78
2022/05/10 00:28:32;;;;;;;32.13;10.88;;;;;;;15.87;23.28;97926.69;4940051;28;20043;-77
2022/05/10 00:30:58;;;;;;;31.63;10.55;;;;;;;15.90;23.60;97923.63;4973811;28;20043;-77
2022/05/10 00:33:30;;;;;;;29.27;10.75;;;;;;;15.93;23.39;97917.84;4973829;28;20058;-76
2022/05/10 00:35:57;;;;;;;32.15;10.77;;;;;;;15.93;23.32;97909.75;4956015;28;20133;-76
2022/05/10 00:38:31;;;;;;;36.35;11.38;;;;;;;16.08;23.29;97915.94;4956464;28;20113;-78
2022/05/10 00:41:09;;;;;;;37.92;12.57;;;;;;;16.07;23.71;97916.97;4973419;28;20409;-78
2022/05/10 00:43:40;;;;;;;30.05;11.02;;;;;;;16.12;23.56;97917.22;4924485;28;20047;-78
2022/05/10 00:46:17;;;;;;;37.17;12.50;;;;;;;16.13;23.82;97902.69;4924647;28;20043;-77
2022/05/10 00:49:01;;;;;;;39.72;11.10;;;;;;;16.23;24.00;97907.78;4960054;28;20441;-77
2022/05/10 00:51:39;;;;;;;43.58;12.07;;;;;;;16.29;23.79;97916.97;4928209;28;20559;-77
2022/05/10 00:54:08;;;;;;;42.63;11.57;;;;;;;16.30;23.81;97919.44;4960439;28;20048;-76
2022/05/10 00:56:50;;;;;;;49.00;12.65;;;;;;;16.27;24.10;97915.28;4944277;28;20039;-77
2022/05/10 00:59:41;;;;;;;44.92;12.23;;;;;;;16.25;24.34;97895.78;4928316;28;20073;-75
2022/05/10 01:02:28;;;;;;;37.60;10.52;;;;;;;16.39;24.59;97912.06;4977348;28;20050;-77
2022/05/10 01:05:02;;;;;;;31.75;11.38;;;;;;;16.39;25.47;97896.69;4977118;28;20038;-76
2022/05/10 01:07:40;;;;;;;37.65;9.77;;;;;;;16.40;25.84;97898.41;4960056;28;20405;-77
2022/05/10 01:10:15;;;;;;;35.58;8.63;;;;;;;16.41;25.77;97907.31;4959493;28;20516;-78
2022/05/10 01:12:53;;;;;;;43.28;9.52;;;;;;;16.40;26.30;97909.19;4927444;28;20049;-77
2022/05/10 01:15:23;;;;;;;35.92;9.68;;;;;;;16.39;26.40;97901.25;4959742;28;20054;-78
2022/05/10 01:17:52;;;;;;;28.58;9.50;;;;;;;16.41;27.10;97910.84;4943926;28;20057;-77
2022/05/10 01:20:23;;;;;;;23.17;8.98;;;;;;;16.39;27.09;97903.97;4943426;28;20062;-77
2022/05/10 01:23:04;;;;;;;26.17;8.75;;;;;;;16.33;27.51;97888.59;4927943;28;20049;-78
2022/05/10 01:25:55;;;;;;;16.92;7.90;;;;;;;16.38;27.61;97899.59;4959744;28;20413;-78
2022/05/10 01:28:20;;;;;;;25.98;7.93;;;;;;;16.31;28.16;97906.81;4960193;28;20073;-76
2022/05/10 01:30:47;;;;;;;14.70;7.35;;;;;;;16.29;28.29;97898.91;4945949;28;20051;-79
2022/05/10 01:33:30;;;;;;;21.60;7.78;;;;;;;16.27;28.37;97899.09;4944009;28;20054;-78
2022/05/10 01:36:20;;;;;;;20.05;7.07;;;;;;;16.22;28.38;97888.06;4976359;28;20537;-78
2022/05/10 01:39:09;;;;;;;19.15;7.18;;;;;;;16.19;28.45;97869.59;4943081;28;20088;-76
2022/05/10 01:41:55;;;;;;;23.23;7.28;;;;;;;16.16;29.18;97886.13;4927233;28;20077;-78
2022/05/10 01:44:41;;;;;;;14.73;7.20;;;;;;;16.08;29.27;97880.06;4941133;28;20521;-78
2022/05/10 01:47:18;;;;;;;17.75;7.18;;;;;;;16.09;29.69;97881.72;4944476;28;20054;-77
2022/05/10 01:49:44;;;;;;;14.73;7.20;;;;;;;16.10;29.57;97895.03;4959880;28;20046;-78
2022/05/10 01:52:32;;;;;;;18.90;7.47;;;;;;;16.12;29.97;97892.13;4959095;28;20063;-78
2022/05/10 01:55:04;;;;;;;21.40;7.17;;;;;;;16.05;30.37;97888.53;4959269;28;20051;-78
2022/05/10 01:57:33;;;;;;;17.65;7.40;;;;;;;16.09;30.56;97887.94;4926649;28;20133;-77
2022/05/10 02:00:05;;;;;;;24.15;7.45;;;;;;;16.06;30.85;97877.56;4926361;28;20133;-79
2022/05/10 02:02:48;;;;;;;14.88;7.38;;;;;;;16.03;31.16;97864.47;4943897;28;20109;-77
2022/05/10 02:05:20;;;;;;;18.25;7.13;;;;;;;16.10;31.27;97876.16;4942609;28;20073;-77
2022/05/10 02:07:49;;;;;;;17.15;7.38;;;;;;;16.11;31.75;97869.72;4942488;28;20050;-77
2022/05/10 02:10:23;;;;;;;18.10;6.63;;;;;;;16.03;32.74;97864.47;4958435;28;20085;-77
2022/05/10 02:13:06;;;;;;;13.50;6.63;;;;;;;15.83;32.50;97852.66;4958387;28;20063;-76
2022/05/10 02:15:53;;;;;;;19.60;6.95;;;;;;;15.84;32.43;97862.44;4958189;28;20050;-77
2022/05/10 02:18:25;;;;;;;24.67;7.25;;;;;;;15.86;32.68;97857.66;4942212;28;20046;-76
2022/05/10 02:21:18;;;;;;;18.88;7.00;;;;;;;15.83;33.67;97855.34;4957911;28;20051;-77
2022/05/10 02:23:53;;;;;;;22.95;8.27;;;;;;;15.81;33.46;97865.50;4957907;28;20054;-77
2022/05/10 02:26:25;;;;;;;20.80;6.68;;;;;;;15.83;33.42;97863.44;4942470;28;20093;-78
2022/05/10 02:29:19;;;;;;;19.70;6.90;;;;;;;15.83;34.40;97868.81;4958126;28;20065;-77
2022/05/10 02:34:45;;;;;;;18.35;6.47;;;;;;;15.68;34.82;97869.75;4942186;28;20046;-77
2022/05/10 02:37:12;;;;;;;15.70;6.80;;;;;;;15.63;35.02;97873.97;4942621;28;20043;-77
2022/05/10 02:39:38;;;;;;;12.80;6.65;;;;;;;15.66;35.00;97869.06;4942379;28;20047;-77
2022/05/10 02:42:09;;;;;;;14.98;6.57;;;;;;;15.75;34.65;97872.47;4942568;28;20386;-79
2022/05/10 02:44:40;;;;;;;12.45;6.35;;;;;;;15.70;35.68;97869.53;4958070;28;20039;-78
2022/05/10 02:47:07;;;;;;;14.15;6.18;;;;;;;15.58;35.86;97869.16;4942124;28;20070;-77
2022/05/10 02:49:35;;;;;;;14.90;6.10;;;;;;;15.55;36.14;97877.63;4957712;28;20053;-78
2022/05/10 02:52:01;;;;;;;11.70;6.50;;;;;;;15.53;36.71;97871.59;4941620;28;20043;-77
2022/05/10 02:54:27;;;;;;;16.08;6.93;;;;;;;15.37;38.11;97859.19;4974752;28;20043;-77
2022/05/10 02:56:53;;;;;;;20.58;6.82;;;;;;;15.36;37.62;97859.38;4957797;28;20050;-78
2022/05/10 02:59:24;;;;;;;18.67;6.60;;;;;;;15.25;38.90;97860.72;4925626;28;20448;-78
2022/05/10 03:02:05;;;;;;;16.83;6.68;;;;;;;15.19;39.96;97867.66;4974693;28;20405;-77
2022/05/10 03:04:36;;;;;;;17.17;6.80;;;;;;;15.12;41.45;97861.38;4957495;28;20753;-77
2022/05/10 03:07:04;;;;;;;17.48;6.25;;;;;;;15.00;42.20;97862.88;4941515;28;20398;-77
2022/05/10 03:09:31;;;;;;;18.97;6.50;;;;;;;14.90;43.13;97854.28;4941405;28;20046;-77
2022/05/10 03:11:57;;;;;;;12.10;6.63;;;;;;;14.85;42.55;97853.97;4974787;28;20549;-77
2022/05/10 03:14:23;;;;;;;18.30;6.88;;;;;;;14.78;44.09;97853.88;4974030;28;20146;-78
2022/05/10 03:16:49;;;;;;;16.38;7.43;;;;;;;14.75;44.47;97838.97;4958746;28;20058;-79
2022/05/10 03:19:18;;;;;;;13.85;6.50;;;;;;;14.61;45.55;97837.09;4943249;28;20441;-78
2022/05/10 03:21:44;;;;;;;11.52;6.00;;;;;;;14.55;46.04;97840.53;4926653;28;20041;-79
2022/05/10 03:24:10;;;;;;;11.80;5.63;;;;;;;14.47;47.07;97832.50;4925402;28;20049;-79
2022/05/10 03:26:36;;;;;;;11.02;5.93;;;;;;;14.53;47.49;97829.13;4941164;28;20174;-77
2022/05/10 03:29:04;;;;;;;17.38;6.40;;;;;;;14.68;49.06;97827.28;4925942;28;20046;-83
2022/05/10 03:31:30;;;;;;;10.98;4.45;;;;;;;14.82;48.71;97828.31;4957414;28;20054;-79
2022/05/10 03:36:41;;;;;;;16.58;5.72;;;;;;;15.44;47.61;97816.19;4974626;28;20051;-85
2022/05/10 03:39:09;;;;;;;12.95;4.93;;;;;;;15.69;48.59;97803.22;4925639;28;20050;-82
2022/05/10 03:41:35;;;;;;;13.57;5.07;;;;;;;15.79;47.53;97804.53;4956961;28;20051;-79
2022/05/10 03:44:01;;;;;;;9.85;4.90;;;;;;;15.89;47.39;97808.78;4957294;28;20070;-81
2022/05/10 03:46:27;;;;;;;14.27;4.57;;;;;;;15.64;47.78;97809.13;4956762;28;20043;-82
2022/05/10 03:48:54;;;;;;;11.63;4.82;;;;;;;15.69;48.37;97804.06;4925294;28;20054;-85
2022/05/10 03:51:19;;;;;;;7.82;4.90;;;;;;;15.79;47.29;97796.44;4957573;28;20100;-81
2022/05/10 03:53:45;;;;;;;11.93;4.93;;;;;;;15.58;47.58;97768.69;4960453;28;20046;-83
2022/05/10 03:56:11;;;;;;;16.52;5.80;;;;;;;15.55;46.85;97780.69;4961634;28;20046;-84
2022/05/10 03:58:38;;;;;;;16.05;5.68;;;;;;;15.56;47.39;97793.09;4924688;28;20110;-82
2022/05/10 04:01:07;;;;;;;9.90;5.20;;;;;;;15.48;47.22;97801.31;4956184;28;20047;-82
2022/05/10 04:03:34;;;;;;;11.27;5.30;;;;;;;15.37;47.97;97797.25;4974800;28;20406;-91
2022/05/10 04:06:01;;;;;;;17.13;5.55;;;;;;;15.11;49.92;97772.75;4924540;28;20073;-83
2022/05/10 04:08:27;;;;;;;20.75;5.80;;;;;;;14.79;50.90;97764.94;4933278;28;20045;-80
2022/05/10 04:10:53;;;;;;;12.05;5.82;;;;;;;14.57;52.05;97771.28;4974221;28;20102;-82
2022/05/10 04:13:20;;;;;;;13.52;6.05;;;;;;;14.43;53.11;97778.28;4958637;28;20568;-79
2022/05/10 04:15:46;;;;;;;10.73;5.50;;;;;;;14.30;52.96;97770.88;4941408;28;20052;-83
2022/05/10 04:18:11;;;;;;;20.38;5.35;;;;;;;14.29;53.15;97758.47;4941101;28;20457;-86
2022/05/10 04:20:37;;;;;;;13.95;5.28;;;;;;;14.09;53.57;97741.19;4940382;28;20050;-81
2022/05/10 04:23:03;;;;;;;12.45;5.55;;;;;;;14.13;53.94;97758.63;4942816;28;20145;-78
2022/05/10 04:25:29;;;;;;;13.25;5.40;;;;;;;14.20;53.37;97759.56;4928316;28;20042;-81
2022/05/10 04:27:55;;;;;;;15.63;5.75;;;;;;;14.04;53.92;97735.56;4944392;28;20049;-87
2022/05/10 04:30:22;;;;;;;12.25;5.22;;;;;;;14.12;54.11;97743.53;4941747;28;20568;-86
2022/05/10 04:32:49;;;;;;;11.30;5.57;;;;;;;14.12;54.44;97746.22;4945093;28;20105;-87
2022/05/10 04:35:15;;;;;;;17.27;6.30;;;;;;;14.14;53.76;97743.31;4975940;28;20050;-81
2022/05/10 04:37:41;;;;;;;8.27;4.65;;;;;;;14.14;54.21;97728.06;4960505;28;20043;-88
2022/05/10 04:42:53;;;;;;;14.55;5.43;;;;;;;14.07;53.79;97725.28;4960854;28;20046;-88
2022/05/10 04:45:19;;;;;;;14.63;4.70;;;;;;;14.17;53.95;97727.66;4959849;28;20093;-84
2022/05/10 04:47:45;;;;;;;8.25;4.30;;;;;;;14.21;54.35;97715.53;4950102;28;20141;-82
2022/05/10 04:50:12;;;;;;;8.80;4.32;;;;;;;14.26;53.54;97723.06;4962474;28;20100;-83
2022/05/10 04:52:39;;;;;;;16.70;4.18;;;;;;;14.30;53.58;97711.75;4964654;28;20038;-78
2022/05/10 04:55:08;;;;;;;7.72;4.07;;;;;;;14.41;53.26;97712.31;4962275;28;20043;-87
2022/05/10 04:57:38;;;;;;;7.53;4.03;;;;;;;14.50;52.89;97711.19;4930678;28;20408;-81
2022/05/10 05:00:10;;;;;;;9.52;4.00;;;;;;;14.44;53.58;97701.16;4978938;28;20046;-91
2022/05/10 05:02:37;;;;;;;11.27;3.90;;;;;;;14.54;53.11;97712.47;4946831;28;20404;-79
2022/05/10 05:05:04;;;;;;;9.23;4.00;;;;;;;14.49;53.25;97693.38;4978639;28;20100;-77
2022/05/10 05:07:30;;;;;;;9.90;4.03;;;;;;;14.51;53.93;97704.78;4962813;28;20551;-77
2022/05/10 05:09:56;;;;;;;7.30;3.97;;;;;;;14.59;53.03;97699.31;4964099;28;20065;-83
2022/05/10 05:12:23;;;;;;;7.97;4.20;;;;;;;14.65;53.66;97693.19;4976244;28;20073;-81
2022/05/10 05:14:49;;;;;;;16.83;4.40;;;;;;;14.73;53.39;97695.75;4972544;28;20093;-77
2022/05/10 05:17:15;;;;;;;5.78;3.88;;;;;;;14.80;53.14;97706.59;4994593;28;20069;-78
2022/05/10 05:19:41;;;;;;;10.63;3.90;;;;;;;14.85;52.95;97703.31;4961725;28;20046;-78
2022/05/10 05:22:07;;;;;;;11.75;3.90;;;;;;;15.00;52.96;97712.19;4977983;28;20046;-78
2022/05/10 05:24:33;;;;;;;12.90;3.50;;;;;;;14.95;53.28;97693.09;4978367;28;20038;-76
2022/05/10 05:27:01;;;;;;;12.35;3.50;;;;;;;14.99;54.07;97695.22;4978179;28;20401;-83
2022/05/10 05:29:28;;;;;;;9.75;3.90;;;;;;;15.15;53.73;97694.13;4962535;28;20050;-78
2022/05/10 05:31:54;;;;;;;9.18;4.63;;;;;;;15.22;53.08;97686.13;4996056;28;20056;-84
2022/05/10 05:34:20;;;;;;;5.82;3.70;;;;;;;15.29;53.58;97679.78;4961989;28;20069;-88
2022/05/10 05:37:32;;;;;;;10.52;3.80;;;;;;;15.30;53.63;97686.81;4987215;28;20077;-90
2022/05/10 05:39:35;;;;;;;11.45;4.10;;;;;;;15.40;54.04;97691.06;4980420;28;20414;-84
2022/05/10 05:42:00;;;;;;;12.80;4.15;;;;;;;15.32;53.87;97677.72;4998301;28;20416;-82
2022/05/10 05:44:27;;;;;;;18.55;4.68;;;;;;;15.31;54.19;97676.91;4963684;28;20050;-82
2022/05/10 05:46:52;;;;;;;9.43;4.60;;;;;;;15.36;54.40;97682.53;4962376;28;20042;-86
2022/05/10 05:49:19;;;;;;;10.75;4.15;;;;;;;15.32;54.47;97677.72;4962530;28;20042;-88
2022/05/10 05:51:44;;;;;;;4.70;3.80;;;;;;;15.35;54.20;97682.72;4983387;28;20569;-84
2022/05/10 05:54:10;;;;;;;8.00;4.40;;;;;;;15.38;54.20;97682.31;4962653;28;20069;-85
2022/05/10 05:56:36;;;;;;;8.82;3.80;;;;;;;15.42;54.48;97694.38;4963875;28;20516;-87
2022/05/10 05:59:02;;;;;;;7.75;4.03;;;;;;;15.42;54.32;97689.84;4963617;28;20125;-83
2022/05/10 06:01:28;;;;;;;10.25;4.03;;;;;;;15.48;53.92;97699.00;4979763;28;20053;-83
2022/05/10 06:03:55;;;;;;;7.57;4.10;;;;;;;15.52;54.21;97694.88;4976795;28;20038;-81
2022/05/10 06:06:22;;;;;;;12.25;4.70;;;;;;;15.59;54.13;97700.31;4994992;28;20042;-90
2022/05/10 06:08:48;;;;;;;10.13;4.07;;;;;;;15.63;54.16;97707.81;4962403;28;20050;-84
2022/05/10 06:11:14;;;;;;;9.00;4.22;;;;;;;15.63;53.92;97705.13;4964248;28;20056;-83
2022/05/10 06:13:40;;;;;;;7.03;4.18;;;;;;;15.62;53.98;97711.53;4956572;28;20060;-86
2022/05/10 06:16:09;;;;;;;11.73;3.50;;;;;;;15.57;54.12;97703.22;4944878;28;20125;-83
2022/05/10 06:18:36;;;;;;;7.65;4.00;;;;;;;15.53;53.93;97701.91;4926024;28;20042;-84
2022/05/10 06:21:02;;;;;;;7.07;4.03;;;;;;;15.46;54.08;97695.66;4926048;28;20105;-88
2022/05/10 06:23:28;;;;;;;7.32;4.00;;;;;;;15.48;54.45;97683.66;4975349;28;20058;-81
2022/05/10 06:25:54;;;;;;;8.02;3.65;;;;;;;15.52;54.47;97689.50;4958034;28;20039;-83
2022/05/10 06:28:21;;;;;;;5.38;3.55;;;;;;;15.48;54.59;97688.22;4941790;28;20169;-84
2022/05/10 06:30:47;;;;;;;8.70;3.85;;;;;;;15.52;54.15;97694.88;4958011;28;20561;-87
2022/05/10 06:33:13;;;;;;;8.02;3.83;;;;;;;15.50;54.82;97672.72;4941379;28;20050;-81
2022/05/10 06:35:40;;;;;;;7.22;4.22;;;;;;;15.56;54.43;97693.47;4941764;28;20117;-84
2022/05/10 06:40:51;;;;;;;9.48;3.58;;;;;;;15.67;54.05;97714.50;4958074;28;20043;-88
2022/05/10 06:43:21;;;;;;;13.18;4.43;;;;;;;15.42;54.97;97686.28;4941426;28;20526;-83
2022/05/10 06:45:50;;;;;;;8.95;3.50;;;;;;;15.45;54.84;97683.22;4941867;28;20434;-84
2022/05/10 06:48:16;;;;;;;4.57;3.55;;;;;;;15.54;54.25;97692.84;4974693;28;20533;-82
2022/05/10 06:50:43;;;;;;;11.43;3.53;;;;;;;15.74;54.44;97699.22;4942233;28;20042;-79
2022/05/10 06:53:11;;;;;;;5.22;3.40;;;;;;;15.85;53.90;97705.13;4926708;28;20069;-84
2022/05/10 06:55:38;;;;;;;7.05;3.20;;;;;;;15.96;53.87;97701.88;4941621;28;20054;-88
2022/05/10 06:58:05;;;;;;;6.38;3.28;;;;;;;16.00;53.27;97698.59;4941511;28;20042;-89
2022/05/10 07:00:34;;;;;;;;;;;;;;;16.07;53.04;97720.19;4942095;28;20509;-88
2022/05/10 07:03:11;;;;;;;8.20;3.50;;;;;;;16.06;53.25;97712.28;4973071;28;19926;-84
2022/05/10 07:05:37;;;;;;;4.68;3.30;;;;;;;16.02;53.75;97711.84;4957038;28;20087;-86
2022/05/10 07:08:03;;;;;;;8.25;3.45;;;;;;;16.02;53.53;97714.53;4941147;28;20042;-83
2022/05/10 07:10:31;;;;;;;9.23;3.90;;;;;;;16.11;53.35;97715.25;4940626;28;20426;-84
2022/05/10 07:12:58;;;;;;;6.97;3.03;;;;;;;16.20;53.35;97725.66;4977244;28;20066;-83
2022/05/10 07:15:24;;;;;;;9.55;3.70;;;;;;;16.25;53.19;97720.53;4960235;28;20050;-85
2022/05/10 07:17:54;;;;;;;7.55;3.70;;;;;;;16.10;53.02;97706.34;4956990;28;20078;-89
2022/05/10 07:20:20;;;;;;;4.68;3.25;;;;;;;16.25;53.38;97728.63;4960752;28;20065;-83
2022/05/10 07:22:47;;;;;;;7.90;3.25;;;;;;;16.16;53.22;97716.31;4993610;28;20042;-85
2022/05/10 07:25:15;;;;;;;6.30;3.33;;;;;;;16.20;53.37;97724.84;4975947;28;20108;-88
2022/05/10 07:27:41;;;;;;;5.05;3.30;;;;;;;16.11;53.83;97731.41;4960729;28;20105;-84
2022/05/10 07:30:11;;;;;;;10.15;3.10;;;;;;;16.17;53.52;97726.09;4993811;28;20070;-86
2022/05/10 07:32:37;;;;;;;10.63;2.88;;;;;;;15.99;54.00;97706.88;4972534;28;20081;-84
2022/05/10 07:35:04;;;;;;;6.15;2.90;;;;;;;16.02;53.63;97703.75;4973049;28;20081;-83
2022/05/10 07:37:33;;;;;;;14.88;3.65;;;;;;;16.25;53.76;97717.81;4976188;28;20046;-84
2022/05/10 07:39:59;;;;;;;4.75;2.83;;;;;;;16.25;53.60;97725.91;4956844;28;20486;-79
2022/05/10 07:42:26;;;;;;;7.70;3.20;;;;;;;16.34;53.10;97717.66;4976637;28;20544;-89
2022/05/10 07:44:52;;;;;;;5.10;3.33;;;;;;;16.31;53.46;97715.34;4959891;28;20054;-83
2022/05/10 07:47:18;;;;;;;8.43;3.78;;;;;;;16.35;53.29;97739.03;4974108;28;20090;-80
2022/05/10 07:49:45;;;;;;;6.28;3.67;;;;;;;16.34;53.12;97731.16;4956421;28;20101;-82
2022/05/10 07:52:13;;;;;;;10.27;4.38;;;;;;;16.26;53.62;97732.97;4973484;28;20084;-79
2022/05/10 07:54:39;;;;;;;9.90;4.20;;;;;;;16.36;53.44;97745.25;4959740;28;20081;-77
2022/05/10 07:57:05;;;;;;;5.90;3.65;;;;;;;16.44;53.28;97737.84;4958889;28;20465;-78
2022/05/10 07:59:31;;;;;;;8.32;3.85;;;;;;;16.41;53.33;97738.25;4975632;28;20065;-80
2022/05/10 08:01:58;;;;;;;4.85;3.30;;;;;;;16.57;53.74;97747.84;4991177;28;20038;-81
2022/05/10 08:04:24;;;;;;;8.68;3.22;;;;;;;16.59;52.61;97751.19;4975409;28;20049;-79
2022/05/10 08:06:52;;;;;;;4.85;3.40;;;;;;;16.62;52.63;97745.38;4992787;28;20504;-77
2022/05/10 08:09:19;;;;;;;6.55;3.38;;;;;;;16.83;52.46;97752.56;4975545;28;20129;-78
2022/05/10 08:11:46;;;;;;;6.18;3.20;;;;;;;16.81;52.41;97748.41;4992756;28;20177;-78
2022/05/10 08:14:14;;;;;;;6.47;2.80;;;;;;;16.84;52.18;97753.41;4955824;28;20476;-78
2022/05/10 08:16:40;;;;;;;7.75;3.08;;;;;;;16.87;52.28;97747.59;4955337;28;20050;-79
2022/05/10 08:19:06;;;;;;;3.03;2.72;;;;;;;16.83;52.26;97740.94;4956051;28;20149;-80
2022/05/10 08:21:32;;;;;;;6.05;3.72;;;;;;;16.99;52.15;97737.88;4955790;28;20150;-80
2022/05/10 08:23:58;;;;;;;11.32;3.45;;;;;;;17.12;51.77;97743.34;4956713;28;20133;-81
2022/05/10 08:26:24;;;;;;;6.72;2.65;;;;;;;17.27;51.48;97734.25;4930112;29;20037;-79
2022/05/10 08:28:51;;;;;;;7.60;2.92;;;;;;;17.35;51.34;97740.28;4937274;29;20035;-77
2022/05/10 08:31:20;;;;;;;4.85;2.85;;;;;;;17.52;50.57;97735.28;4938912;28;20075;-79
2022/05/10 08:33:46;;;;;;;7.22;3.00;;;;;;;17.47;50.69;97737.78;4937143;29;20051;-79
2022/05/10 08:36:12;;;;;;;6.57;2.97;;;;;;;17.40;50.58;97742.34;4937427;29;20051;-78
2022/05/10 08:38:39;;;;;;;4.22;2.83;;;;;;;17.33;50.35;97731.53;4952313;28;20525;-80
2022/05/10 08:41:26;;;;;;;8.57;2.92;;;;;;;17.43;50.39;97740.06;4924482;28;20049;-79
2022/05/10 08:44:12;;;;;;;4.68;2.95;;;;;;;17.58;49.59;97744.47;4954896;28;20055;-77
2022/05/10 08:46:43;;;;;;;5.95;2.90;;;;;;;17.57;49.47;97746.34;4955604;28;20091;-79
2022/05/10 08:49:15;;;;;;;7.50;3.33;;;;;;;17.69;49.30;97736.56;4940574;28;20441;-78
2022/05/10 08:51:41;;;;;;;5.80;3.10;;;;;;;18.04;49.03;97744.50;4955242;28;20047;-78
2022/05/10 08:54:08;;;;;;;5.75;2.88;;;;;;;18.40;48.57;97743.19;4948994;28;20174;-79
2022/05/10 08:56:48;;;;;;;6.95;2.97;;;;;;;18.81;47.92;97729.34;4939534;28;20406;-78
2022/05/10 08:59:29;;;;;;;6.32;3.03;;;;;;;18.91;46.94;97745.13;4940674;28;20129;-80
2022/05/10 09:02:14;;;;;;;6.28;2.65;;;;;;;18.86;46.80;97724.13;4955318;28;20089;-83
2022/05/10 09:04:49;;;;;;;9.90;3.15;;;;;;;18.99;46.86;97744.03;4934215;29;20054;-78
2022/05/10 09:07:39;;;;;;;6.68;2.75;;;;;;;19.28;46.27;97739.94;4920153;29;20054;-79
2022/05/10 09:10:16;;;;;;;4.68;2.40;;;;;;;19.08;46.22;97734.66;4924256;29;20146;-77
2022/05/10 09:12:49;;;;;;;4.65;2.50;;;;;;;18.98;46.06;97735.09;4940107;28;20133;-78
2022/05/10 09:15:19;;;;;;;9.25;2.80;;;;;;;18.73;46.13;97748.56;4974538;28;20043;-79
2022/05/10 09:17:45;;;;;;;6.43;3.03;;;;;;;18.66;46.58;97736.88;4977730;28;20050;-80
2022/05/10 09:20:12;;;;;;;8.48;2.70;;;;;;;18.91;46.33;97747.81;4958323;28;20070;-79
2022/05/10 09:22:59;;;;;;;4.95;2.53;;;;;;;19.31;45.71;97740.34;4959401;28;20089;-79
2022/05/10 09:25:34;;;;;;;7.15;2.30;;;;;;;19.53;45.53;97735.41;4959554;28;20109;-78
2022/05/10 09:28:18;;;;;;;7.93;2.40;;;;;;;20.05;44.35;97738.78;4944221;28;20101;-82
2022/05/10 09:34:45;;;;;;;8.75;2.63;;;;;;;20.41;43.64;97741.75;4944193;28;20051;-78
2022/05/10 09:36:27;;;;;;;6.15;2.38;;;;;;;20.45;42.31;97740.25;4965203;28;20043;-80
2022/05/10 09:39:00;;;;;;;4.55;2.00;;;;;;;20.31;42.56;97739.56;4959181;28;20047;-79
2022/05/10 09:41:40;;;;;;;6.88;2.33;;;;;;;20.24;42.38;97741.53;4942479;28;20492;-79
2022/05/10 09:44:27;;;;;;;17.50;2.63;;;;;;;20.20;42.69;97735.72;4942553;28;20094;-79
2022/05/10 09:47:25;;;;;;;5.65;2.17;;;;;;;20.35;42.59;97740.78;4975765;28;20047;-78
2022/05/10 09:49:51;;;;;;;9.18;2.28;;;;;;;20.20;42.78;97752.00;4947702;28;20061;-78
2022/05/10 09:52:27;;;;;;;4.60;2.30;;;;;;;20.19;42.50;97746.78;4958812;28;20051;-79
2022/05/10 09:54:57;;;;;;;6.53;2.38;;;;;;;20.24;42.60;97760.53;4942669;28;20054;-76
2022/05/10 09:57:43;;;;;;;2.80;1.92;;;;;;;19.97;42.91;97749.91;4942588;28;20097;-78
2022/05/10 10:00:14;;;;;;;5.93;2.28;;;;;;;19.81;43.38;97761.28;4975224;28;20049;-78
2022/05/10 10:02:41;;;;;;;4.97;2.47;;;;;;;19.89;43.41;97758.31;4958202;28;20074;-78
2022/05/10 10:05:37;;;;;;;6.18;2.55;;;;;;;20.19;42.63;97758.47;4943836;28;20056;-78
2022/05/10 10:08:03;;;;;;;4.72;2.33;;;;;;;20.32;42.74;97752.91;4962423;28;20043;-79
2022/05/10 10:10:34;;;;;;;7.40;2.30;;;;;;;20.37;42.57;97761.22;4978008;28;20169;-78
2022/05/10 10:13:26;;;;;;;11.82;3.05;;;;;;;20.45;42.49;97756.53;4961606;28;20054;-79
2022/05/10 10:15:52;;;;;;;7.20;3.05;;;;;;;20.40;42.22;97751.78;4995682;28;20587;-78
2022/05/10 10:18:38;;;;;;;9.27;2.47;;;;;;;20.44;42.03;97754.88;4961698;28;20039;-77
2022/05/10 10:21:05;;;;;;;4.55;2.30;;;;;;;20.21;42.70;97767.22;4960661;28;20073;-77
2022/05/10 10:23:37;;;;;;;8.05;3.35;;;;;;;19.81;42.81;97759.41;4977878;28;20246;-78
2022/05/10 10:26:17;;;;;;;8.00;2.55;;;;;;;19.68;43.27;97755.97;4961415;28;20520;-80
2022/05/10 10:28:55;;;;;;;13.20;3.40;;;;;;;19.59;43.53;97760.78;4961836;28;20046;-78
2022/05/10 10:31:33;;;;;;;6.50;2.65;;;;;;;18.96;44.91;97752.63;4961754;28;20058;-79
2022/05/10 10:34:18;;;;;;;9.40;3.20;;;;;;;18.96;44.69;97752.63;4969366;28;20124;-77
2022/05/10 10:37:04;;;;;;;4.15;2.75;;;;;;;19.04;44.67;97755.09;4955606;28;20052;-77
2022/05/10 10:39:48;;;;;;;7.20;3.22;;;;;;;18.89;45.16;97742.66;4960920;28;20054;-79
2022/05/10 10:42:36;;;;;;;9.43;2.70;;;;;;;18.98;45.19;97754.06;4936201;28;20034;-78
2022/05/10 10:45:10;;;;;;;8.38;2.88;;;;;;;18.93;45.26;97748.47;4966769;28;20532;-77
2022/05/10 10:47:59;;;;;;;15.40;3.10;;;;;;;18.81;45.29;97761.00;4972020;28;20043;-77
2022/05/10 10:50:29;;;;;;;4.82;3.10;;;;;;;18.76;45.45;97758.09;4989387;28;20078;-79
2022/05/10 10:52:58;;;;;;;14.23;3.65;;;;;;;18.63;45.41;97754.38;4969531;28;20051;-77
2022/05/10 10:55:35;;;;;;;4.43;3.08;;;;;;;18.62;45.78;97755.41;4952255;28;20046;-78
2022/05/10 10:58:36;;;;;;;8.70;3.53;;;;;;;18.62;46.12;97749.19;4980013;28;20077;-79
2022/05/10 11:02:01;;;;;;;9.50;3.17;;;;;;;18.74;46.25;97749.38;4957614;28;20133;-78
2022/05/10 11:04:42;;;;;;;11.77;3.35;;;;;;;18.77;46.22;97738.09;4888351;29;20060;-80
2022/05/10 11:07:22;;;;;;;4.82;3.17;;;;;;;19.11;45.72;97739.63;4939364;28;20054;-78
2022/05/10 11:10:03;;;;;;;3.90;2.92;;;;;;;19.47;45.33;97740.88;4941801;28;20145;-78
2022/05/10 11:12:47;;;;;;;9.68;3.10;;;;;;;19.57;44.95;97733.91;4957791;28;20074;-78
2022/05/10 11:15:47;;;;;;;8.07;3.13;;;;;;;19.50;45.04;97726.88;4942436;28;20442;-78
2022/05/10 11:18:32;;;;;;;6.15;2.92;;;;;;;19.93;44.14;97726.97;4941587;28;20051;-79
2022/05/10 11:21:11;;;;;;;3.88;2.67;;;;;;;20.40;43.41;97715.69;4957165;28;20039;-77
2022/05/10 11:24:05;;;;;;;6.00;2.85;;;;;;;20.70;42.58;97721.22;4941438;28;20047;-78
2022/05/10 11:26:31;;;;;;;6.38;2.95;;;;;;;20.83;42.09;97729.19;4940834;28;20236;-79
2022/05/10 11:29:26;;;;;;;7.63;3.28;;;;;;;20.98;42.30;97721.47;4944453;28;20050;-78
2022/05/10 11:32:37;;;;;;;5.35;2.90;;;;;;;21.77;41.74;97705.91;4936207;28;20145;-78
2022/05/10 11:35:05;;;;;;;11.57;3.10;;;;;;;22.63;40.00;97719.06;4896200;29;20088;-78
2022/05/10 11:37:59;;;;;;;7.10;3.15;;;;;;;22.66;39.27;97713.16;4883833;29;20067;-79
2022/05/10 11:40:47;;;;;;;7.20;3.00;;;;;;;22.15;39.26;97715.56;4935828;28;20055;-79
2022/05/10 11:43:29;;;;;;;11.65;2.83;;;;;;;21.42;40.31;97716.72;4975267;28;20080;-79
2022/05/10 11:46:33;;;;;;;3.58;2.90;;;;;;;20.97;41.18;97719.81;4960127;28;20064;-78
2022/05/10 11:49:36;;;;;;;6.53;3.20;;;;;;;20.60;42.18;97725.28;4956819;28;20145;-77
2022/05/10 11:52:15;;;;;;;4.63;2.85;;;;;;;20.19;43.02;97708.78;4956918;28;20062;-79
2022/05/10 11:55:04;;;;;;;7.72;3.08;;;;;;;19.93;43.41;97715.31;4976308;28;20217;-78
2022/05/10 11:57:32;;;;;;;6.95;3.38;;;;;;;19.83;44.07;97721.25;4976007;28;20064;-79
2022/05/10 12:00:26;;;;;;;8.57;3.17;;;;;;;19.45;45.07;97724.84;4950756;28;20135;-79
2022/05/10 12:02:56;;;;;;;6.97;3.42;;;;;;;19.22;45.49;97724.53;4972152;28;20057;-78
2022/05/10 12:05:23;;;;;;;8.43;3.05;;;;;;;19.14;45.87;97722.94;4994266;28;20054;-78
2022/05/10 12:07:54;;;;;;;6.72;3.42;;;;;;;19.12;45.98;97720.44;4956605;28;20184;-78